Terminal Aerodrome Forecast
Issued by NWS Milwaukee/Sullivan, WI

Home | Current Version | Previous Version | Text Only | Print | Product List | Glossary On
Versions: 1 2 3 4 5 6 7 8 9 10 11 12 13 14 15 16 17 18 19 20 21 22 23
000
FTUS43 KMKX 110531
TAFMKE
TAF
KMKE 110531Z 1106/1212 17006KT 1 1/2SM -SN SCT015 OVC025
     FM111200 17009KT 3SM -SN SCT015 OVC025
     FM112000 21005KT 2SM -SN BR OVC008
     FM120100 22005KT P6SM OVC008
     FM120600 27009KT P6SM BKN010
     FM121000 28011G23KT P6SM BKN020=

USA.gov is the U.S. government's official web portal to all federal, state and local government web resources and services.